createdAt,value
2022-07-27T04:17:06.296Z,47.66
2022-07-27T04:19:32.893Z,47.53
2022-07-27T04:21:59.405Z,47.53
2022-07-27T04:24:25.920Z,47.52
2022-07-27T04:26:52.386Z,47.72
2022-07-27T04:29:20.813Z,47.67
2022-07-27T04:31:47.955Z,48.18
2022-07-27T04:34:14.568Z,47.17
2022-07-27T04:36:41.115Z,47.10
2022-07-27T04:39:19.471Z,46.84
2022-07-27T04:41:46.957Z,47.15
2022-07-27T04:44:13.674Z,46.64
2022-07-27T04:46:40.666Z,46.74
2022-07-27T04:49:07.460Z,46.99
2022-07-27T04:51:35.373Z,46.46
2022-07-27T04:54:02.674Z,47.06
2022-07-27T04:56:29.267Z,46.17
2022-07-27T04:58:56.283Z,47.05
2022-07-27T05:01:23.447Z,46.87
2022-07-27T05:03:50.269Z,46.84
2022-07-27T05:06:17.413Z,47.12
2022-07-27T05:08:44.041Z,47.27
2022-07-27T05:11:10.675Z,46.72
2022-07-27T05:13:40.607Z,46.54
2022-07-27T05:16:09.220Z,47.44
2022-07-27T05:18:36.241Z,46.61
2022-07-27T05:21:03.004Z,47.05
2022-07-27T05:23:29.493Z,46.93
2022-07-27T05:26:00.241Z,47.07
2022-07-27T05:28:30.413Z,47.52
2022-07-27T05:30:57.193Z,47.38
2022-07-27T05:33:23.819Z,47.84
2022-07-27T05:35:50.807Z,48.45
2022-07-27T05:38:17.370Z,48.45
2022-07-27T05:40:45.528Z,47.83
2022-07-27T05:43:12.240Z,48.29
2022-07-27T05:45:38.808Z,48.22
2022-07-27T05:48:05.728Z,47.96
2022-07-27T05:50:32.273Z,48.06
2022-07-27T05:53:04.021Z,47.60
2022-07-27T05:55:30.575Z,46.75
2022-07-27T05:57:57.132Z,47.18
2022-07-27T06:00:23.719Z,47.66
2022-07-27T06:02:50.371Z,48.34
2022-07-27T06:05:17.503Z,47.27
2022-07-27T06:08:00.811Z,47.07
2022-07-27T06:10:32.799Z,47.30
2022-07-27T06:13:00.170Z,46.18
2022-07-27T06:15:26.762Z,46.71
2022-07-27T06:17:54.834Z,46.93
2022-07-27T06:20:22.560Z,46.24
2022-07-27T06:22:52.282Z,46.14
2022-07-27T06:25:20.077Z,46.14
2022-07-27T06:27:49.821Z,46.26
2022-07-27T06:30:20.558Z,45.78
2022-07-27T06:32:53.066Z,46.26
2022-07-27T06:35:21.704Z,46.02
2022-07-27T06:37:52.713Z,46.66
2022-07-27T06:40:29.948Z,46.42
2022-07-27T06:43:00.035Z,46.14
2022-07-27T06:45:27.346Z,46.10
2022-07-27T06:47:54.972Z,45.56
2022-07-27T06:50:22.366Z,44.83
2022-07-27T06:52:50.974Z,44.96
2022-07-27T06:55:17.824Z,44.92
2022-07-27T06:57:50.625Z,44.60
2022-07-27T07:00:17.310Z,43.77
2022-07-27T07:02:58.879Z,43.84
2022-07-27T07:05:26.922Z,43.52
2022-07-27T07:07:57.285Z,43.23
2022-07-27T07:10:25.128Z,43.34
2022-07-27T07:12:56.217Z,43.04
2022-07-27T07:15:36.000Z,43.37
2022-07-27T07:18:07.144Z,42.90
2022-07-27T07:20:42.293Z,43.04
2022-07-27T07:23:10.522Z,42.90
2022-07-27T07:25:37.992Z,43.25
2022-07-27T07:28:09.230Z,42.90
2022-07-27T07:30:40.207Z,43.62
2022-07-27T07:33:07.798Z,43.30
2022-07-27T07:35:35.511Z,43.05
2022-07-27T07:38:02.068Z,42.77
2022-07-27T07:40:43.432Z,42.98
2022-07-27T07:43:12.154Z,42.35
2022-07-27T07:45:50.848Z,42.43
2022-07-27T07:48:19.371Z,41.74
2022-07-27T07:50:45.920Z,41.67
2022-07-27T07:53:18.292Z,41.49
2022-07-27T07:55:50.021Z,41.31
2022-07-27T07:58:16.641Z,41.25
2022-07-27T08:00:44.401Z,40.91
2022-07-27T08:03:15.447Z,40.48
2022-07-27T08:05:42.392Z,40.23
2022-07-27T08:08:10.405Z,39.75
2022-07-27T08:10:42.351Z,39.79
2022-07-27T08:14:10.809Z,39.68
2022-07-27T08:16:37.897Z,39.69
2022-07-27T08:19:08.697Z,39.47
2022-07-27T08:21:36.370Z,39.19
2022-07-27T08:24:03.389Z,39.29
2022-07-27T08:26:29.952Z,38.87
2022-07-27T08:28:59.490Z,38.30
2022-07-27T08:31:52.482Z,38.00
2022-07-27T08:34:20.788Z,37.72
2022-07-27T08:36:47.457Z,37.55
2022-07-27T08:39:52.327Z,37.29
2022-07-27T08:42:04.519Z,36.32
2022-07-27T08:44:34.696Z,36.25
2022-07-27T08:47:03.667Z,36.50
2022-07-27T08:49:42.393Z,36.29
2022-07-27T08:52:11.664Z,36.08
2022-07-27T08:54:46.375Z,36.39
2022-07-27T08:57:15.196Z,35.61
2022-07-27T08:59:49.770Z,35.66
2022-07-27T09:02:17.890Z,35.32
2022-07-27T09:04:44.494Z,34.66
2022-07-27T09:07:27.679Z,34.39
2022-07-27T09:09:57.329Z,34.84
2022-07-27T09:12:28.678Z,34.62
2022-07-27T09:15:19.140Z,34.68
2022-07-27T09:18:18.751Z,34.69
2022-07-27T09:20:46.996Z,34.58
2022-07-27T09:23:27.134Z,34.35
2022-07-27T09:26:31.672Z,33.69
2022-07-27T09:29:00.937Z,33.46
2022-07-27T09:31:30.431Z,33.07
2022-07-27T09:34:01.702Z,32.31
2022-07-27T09:36:30.250Z,32.48
2022-07-27T09:39:07.883Z,32.22
2022-07-27T09:41:40.470Z,31.96
2022-07-27T09:46:56.409Z,31.35
2022-07-27T09:49:31.227Z,31.73
2022-07-27T09:52:00.973Z,32.06
2022-07-27T09:54:47.112Z,31.45
2022-07-27T09:57:19.985Z,30.88
2022-07-27T09:59:46.859Z,31.19
2022-07-27T10:02:15.674Z,30.77
2022-07-27T10:04:43.990Z,30.37
2022-07-27T10:07:13.741Z,29.86
2022-07-27T10:09:41.038Z,29.27
2022-07-27T10:12:08.293Z,28.99
2022-07-27T10:14:35.547Z,29.13
2022-07-27T10:17:02.932Z,28.63
2022-07-27T10:19:36.466Z,28.92
2022-07-27T10:22:03.625Z,28.96
2022-07-27T10:24:37.622Z,28.10
2022-07-27T10:27:26.271Z,29.56
2022-07-27T10:29:59.649Z,29.04
2022-07-27T10:32:31.225Z,29.20
2022-07-27T10:34:58.808Z,29.57
2022-07-27T10:37:29.730Z,29.57
2022-07-27T10:40:19.783Z,30.22
2022-07-27T10:42:54.071Z,29.91
2022-07-27T10:46:00.059Z,29.90
2022-07-27T10:48:35.996Z,30.19
2022-07-27T10:51:09.246Z,30.36
2022-07-27T10:54:10.573Z,29.64
2022-07-27T10:56:48.303Z,29.96
2022-07-27T10:59:58.200Z,30.01
2022-07-27T11:02:42.395Z,28.74
2022-07-27T11:05:53.863Z,28.77
2022-07-27T11:08:34.952Z,28.09
2022-07-27T11:10:47.997Z,28.52
2022-07-27T11:13:22.598Z,28.60
2022-07-27T11:16:24.562Z,28.45
2022-07-27T11:19:04.186Z,27.79
2022-07-27T11:21:35.849Z,27.85
2022-07-27T11:24:19.548Z,27.93
2022-07-27T11:26:49.411Z,27.92
2022-07-27T11:29:19.691Z,27.59
2022-07-27T11:31:57.095Z,27.00
2022-07-27T11:34:31.146Z,28.23
2022-07-27T11:37:03.009Z,27.68
2022-07-27T11:39:59.126Z,28.44
2022-07-27T11:42:24.126Z,28.22
2022-07-27T11:44:53.430Z,28.11
2022-07-27T11:47:23.870Z,27.42
2022-07-27T11:49:52.089Z,27.24
2022-07-27T11:52:18.894Z,27.40
2022-07-27T11:54:51.669Z,27.56
2022-07-27T11:57:20.829Z,26.53
2022-07-27T11:59:49.699Z,27.01
2022-07-27T12:02:20.728Z,27.00
2022-07-27T12:04:51.964Z,27.09
2022-07-27T12:07:21.911Z,26.67
2022-07-27T12:09:57.193Z,26.80
2022-07-27T12:12:26.745Z,26.56
2022-07-27T12:15:07.917Z,26.93
2022-07-27T12:17:56.995Z,27.25
2022-07-27T12:20:32.505Z,26.97
2022-07-27T12:23:07.779Z,27.53
2022-07-27T12:25:35.176Z,27.49
2022-07-27T12:28:05.691Z,26.80
2022-07-27T12:30:40.720Z,26.80
2022-07-27T12:33:25.167Z,26.06
2022-07-27T12:35:53.193Z,26.76
2022-07-27T12:38:19.897Z,26.64
2022-07-27T12:40:50.085Z,27.05
2022-07-27T12:43:24.967Z,27.22
2022-07-27T12:45:59.065Z,27.38
2022-07-27T12:48:38.757Z,27.83
2022-07-27T12:51:11.884Z,27.32
2022-07-27T12:53:38.920Z,27.33
2022-07-27T12:56:12.947Z,27.32
2022-07-27T12:58:58.762Z,27.44
2022-07-27T13:01:25.328Z,26.93
2022-07-27T13:04:17.625Z,26.58
2022-07-27T13:06:52.432Z,26.90
2022-07-27T13:09:21.028Z,26.41
2022-07-27T13:11:48.346Z,26.35
2022-07-27T13:14:15.492Z,26.28
2022-07-27T13:16:42.122Z,26.66
2022-07-27T13:19:10.292Z,25.25
2022-07-27T13:21:37.244Z,25.24
2022-07-27T13:24:04.089Z,25.57
2022-07-27T13:26:36.595Z,25.68
2022-07-27T13:29:05.028Z,26.84
2022-07-27T13:31:31.612Z,26.90
2022-07-27T13:33:58.139Z,26.52
2022-07-27T13:36:25.355Z,26.54
2022-07-27T13:38:51.926Z,25.98
2022-07-27T13:41:23.959Z,25.71
2022-07-27T13:43:52.704Z,25.95
2022-07-27T13:46:45.924Z,25.53
2022-07-27T13:49:12.984Z,26.27
2022-07-27T13:51:46.012Z,26.17
2022-07-27T13:54:13.553Z,25.74
2022-07-27T13:57:09.065Z,25.35
2022-07-27T13:59:35.578Z,25.32
2022-07-27T14:02:02.160Z,25.63
2022-07-27T14:04:29.106Z,25.20
2022-07-27T14:06:57.851Z,25.08
2022-07-27T14:09:44.360Z,24.89
2022-07-27T14:12:10.958Z,24.59
2022-07-27T14:14:37.683Z,24.70
2022-07-27T14:17:04.949Z,25.00
2022-07-27T14:19:31.473Z,24.96
2022-07-27T14:21:58.376Z,25.41
2022-07-27T14:24:24.962Z,25.23
2022-07-27T14:26:51.573Z,25.53
2022-07-27T14:29:26.430Z,25.51
2022-07-27T14:31:52.945Z,26.09
2022-07-27T14:34:19.478Z,25.91
2022-07-27T14:36:46.044Z,26.06
2022-07-27T14:39:25.819Z,25.64
2022-07-27T14:41:52.309Z,26.43
2022-07-27T14:44:19.183Z,26.18
2022-07-27T14:46:46.477Z,25.94
2022-07-27T14:49:14.794Z,25.90
2022-07-27T14:51:41.721Z,25.35
2022-07-27T14:54:08.410Z,25.30
2022-07-27T14:56:36.561Z,25.17
2022-07-27T14:59:04.412Z,25.38
2022-07-27T15:01:31.791Z,25.44
2022-07-27T15:03:58.584Z,25.33
2022-07-27T15:06:25.165Z,25.48
2022-07-27T15:08:55.142Z,25.79
2022-07-27T15:11:21.688Z,26.08
2022-07-27T15:13:50.495Z,26.04
2022-07-27T15:16:17.170Z,25.60
2022-07-27T15:18:45.695Z,25.55
2022-07-27T15:21:13.872Z,25.93
2022-07-27T15:23:43.006Z,25.57
2022-07-27T15:26:13.011Z,25.47
2022-07-27T15:28:40.661Z,25.30
2022-07-27T15:31:07.396Z,25.14
2022-07-27T15:33:34.007Z,24.84
2022-07-27T15:36:05.381Z,24.80
2022-07-27T15:38:31.919Z,24.91
2022-07-27T15:40:58.459Z,24.86
2022-07-27T15:43:25.185Z,25.18
2022-07-27T15:45:52.046Z,25.20
2022-07-27T15:48:20.200Z,25.08
2022-07-27T15:50:49.906Z,25.21
2022-07-27T15:53:18.534Z,24.96
2022-07-27T15:55:46.101Z,25.13
2022-07-27T15:58:17.922Z,25.12
2022-07-27T16:00:45.672Z,25.44
2022-07-27T16:03:14.989Z,25.33
2022-07-27T16:05:43.027Z,24.94
2022-07-27T16:08:10.449Z,25.28
2022-07-27T16:10:38.629Z,25.02
2022-07-27T16:13:05.862Z,24.68
2022-07-27T16:15:52.281Z,24.03
2022-07-27T16:18:18.965Z,24.16
2022-07-27T16:20:45.516Z,24.02
2022-07-27T16:23:18.034Z,23.93
2022-07-27T16:26:10.558Z,23.95
2022-07-27T16:28:40.975Z,24.24
2022-07-27T16:31:10.358Z,24.36
2022-07-27T16:33:43.960Z,23.89
2022-07-27T16:36:11.535Z,23.69
2022-07-27T16:38:49.625Z,23.82
2022-07-27T16:41:26.003Z,23.28
2022-07-27T16:43:52.850Z,23.29
2022-07-27T16:46:19.773Z,23.17
2022-07-27T16:48:46.460Z,23.72
2022-07-27T16:51:14.934Z,23.96
2022-07-27T16:53:44.145Z,23.33
2022-07-27T16:56:11.565Z,23.61
2022-07-27T16:58:39.325Z,23.82
2022-07-27T17:01:06.544Z,23.87
2022-07-27T17:03:33.239Z,23.92
2022-07-27T17:06:03.613Z,23.70
2022-07-27T17:08:32.521Z,23.15
2022-07-27T17:11:00.462Z,23.78
2022-07-27T17:13:33.439Z,23.98
2022-07-27T17:16:05.832Z,23.79
2022-07-27T17:18:39.572Z,24.14
2022-07-27T17:21:07.442Z,23.88
2022-07-27T17:23:37.831Z,23.57
2022-07-27T17:26:06.511Z,23.41
2022-07-27T17:28:36.669Z,23.99
2022-07-27T17:31:05.070Z,23.74
2022-07-27T17:33:31.954Z,23.73
2022-07-27T17:35:59.889Z,23.66
2022-07-27T17:38:27.097Z,23.82
2022-07-27T17:40:54.217Z,23.57
2022-07-27T17:43:20.942Z,23.89
2022-07-27T17:45:48.998Z,23.78
2022-07-27T17:48:15.659Z,23.77
2022-07-27T17:50:42.207Z,23.73
2022-07-27T17:53:08.769Z,23.85
2022-07-27T17:55:37.578Z,23.89
2022-07-27T17:58:04.420Z,23.49
2022-07-27T18:00:31.368Z,24.27
2022-07-27T18:02:58.023Z,24.08
2022-07-27T18:05:24.639Z,23.92
2022-07-27T18:07:53.139Z,24.32
2022-07-27T18:10:20.587Z,24.36
2022-07-27T18:12:47.165Z,24.28
2022-07-27T18:15:32.484Z,24.29
2022-07-27T18:17:59.308Z,24.74
2022-07-27T18:20:27.098Z,24.90
2022-07-27T18:22:53.701Z,24.85
2022-07-27T18:25:22.103Z,25.06
2022-07-27T18:27:50.040Z,24.70
2022-07-27T18:30:17.693Z,25.11
2022-07-27T18:32:45.423Z,24.98
2022-07-27T18:35:12.708Z,25.23
2022-07-27T18:37:39.313Z,25.51
2022-07-27T18:40:07.117Z,25.73
2022-07-27T18:42:33.751Z,25.83
2022-07-27T18:45:00.270Z,25.64
2022-07-27T18:47:26.944Z,26.52
2022-07-27T18:49:53.541Z,26.49
2022-07-27T18:52:20.166Z,26.76
2022-07-27T18:54:46.693Z,26.65
2022-07-27T18:57:13.482Z,26.87
2022-07-27T18:59:41.432Z,27.10
2022-07-27T19:02:08.601Z,27.50
2022-07-27T19:04:35.856Z,27.41
2022-07-27T19:07:03.537Z,27.10
2022-07-27T19:09:33.520Z,27.72
2022-07-27T19:12:00.222Z,27.82
2022-07-27T19:14:27.585Z,28.03
2022-07-27T19:16:54.504Z,28.35
2022-07-27T19:19:23.332Z,28.19
2022-07-27T19:21:50.245Z,28.34
2022-07-27T19:24:16.979Z,28.36
2022-07-27T19:26:43.906Z,28.93
2022-07-27T19:29:13.315Z,28.90
2022-07-27T19:31:40.335Z,29.25
2022-07-27T19:34:07.156Z,29.44
2022-07-27T19:36:34.041Z,29.32
2022-07-27T19:39:05.532Z,29.85
2022-07-27T19:41:34.314Z,29.81
2022-07-27T19:44:01.137Z,29.64
2022-07-27T19:46:28.077Z,30.13
2022-07-27T19:49:24.186Z,29.90
2022-07-27T19:51:51.744Z,30.02
2022-07-27T19:54:19.747Z,30.54
2022-07-27T19:56:47.410Z,30.54
2022-07-27T19:59:15.886Z,30.45
2022-07-27T20:01:43.838Z,30.47
2022-07-27T20:04:10.595Z,30.74
2022-07-27T20:06:37.674Z,30.83
2022-07-27T20:09:07.355Z,30.74
2022-07-27T20:11:34.104Z,31.03
2022-07-27T20:14:03.486Z,30.59
2022-07-27T20:16:32.222Z,30.55
2022-07-27T20:19:00.238Z,31.29
2022-07-27T20:21:27.111Z,30.98
2022-07-27T20:23:54.560Z,30.99
2022-07-27T20:26:21.313Z,31.01
2022-07-27T20:28:49.761Z,31.31
2022-07-27T20:31:16.523Z,31.18
2022-07-27T20:33:43.139Z,31.32
2022-07-27T20:36:09.911Z,31.74
2022-07-27T20:38:36.501Z,31.27
2022-07-27T20:41:03.097Z,31.85
2022-07-27T20:43:31.199Z,31.63
2022-07-27T20:45:58.212Z,31.55
2022-07-27T20:48:24.830Z,31.45
2022-07-27T20:50:54.365Z,31.49
2022-07-27T20:53:21.002Z,32.06
2022-07-27T20:55:48.128Z,31.74
2022-07-27T20:58:14.995Z,31.58
2022-07-27T21:00:41.620Z,31.78
2022-07-27T21:03:08.644Z,31.59
2022-07-27T21:05:35.667Z,31.45
2022-07-27T21:08:05.003Z,31.54
2022-07-27T21:10:31.613Z,31.57
2022-07-27T21:12:58.549Z,31.60
2022-07-27T21:15:33.653Z,31.33
2022-07-27T21:18:01.734Z,31.45
2022-07-27T21:20:28.976Z,31.33
2022-07-27T21:23:14.235Z,31.20
2022-07-27T21:25:41.062Z,31.31
2022-07-27T21:28:09.973Z,31.68
2022-07-27T21:30:38.384Z,31.68
2022-07-27T21:33:06.488Z,31.45
2022-07-27T21:35:33.350Z,31.59
2022-07-27T21:38:02.063Z,31.29
2022-07-27T21:40:28.631Z,31.67
2022-07-27T21:42:55.190Z,31.18
2022-07-27T21:45:21.708Z,32.52
2022-07-27T21:47:50.547Z,31.65
2022-07-27T21:50:18.106Z,31.89
2022-07-27T21:52:44.700Z,32.01
2022-07-27T21:55:11.375Z,32.13
2022-07-27T21:57:37.921Z,32.21
